D/T METAR WX W/DIR W/SPE G/SPE TEMP DEWP
6/06/20 10:50 EGGW 060950Z AUTO 24021G34KT 9999 OVC028 10/04 Q0996 WSW (240°) 24.2mph 39.1mph 10°C 4°C
6/06/20 10:20 EGGW 060920Z AUTO 25019KT 9999 -RA OVC028 09/05 Q0996 -RA WSW (250°) 21.9mph 9°C 5°C
6/06/20 09:50 EGGW 060850Z AUTO 25020KT 9999 BKN028 10/04 Q0996 WSW (250°) 23.0mph 10°C 4°C
6/06/20 09:20 EGGW 060820Z AUTO 25021KT 9999 BKN028 OVC033 10/03 Q0996 WSW (250°) 24.2mph 10°C 3°C
6/06/20 08:50 EGGW 060750Z AUTO 26022KT 9999 BKN027 10/03 Q0996 W (260°) 25.3mph 10°C 3°C
6/06/20 08:20 EGGW 060720Z AUTO 26022G33KT 9999 BKN026 09/03 Q0996 W (260°) 25.3mph 38.0mph 9°C 3°C
6/06/20 07:50 EGGW 060650Z AUTO 26022KT 9999 NCD 09/03 Q0996 W (260°) 25.3mph 9°C 3°C
6/06/20 07:20 EGGW 060620Z AUTO 25018KT 9999 NCD 08/03 Q0996 WSW (250°) 20.7mph 8°C 3°C
6/06/20 06:50 EGGW 060550Z AUTO 25018KT 9999 NCD 07/03 Q0997 WSW (250°) 20.7mph 7°C 3°C
6/06/20 06:20 EGGW 060520Z AUTO 25018KT 9999 NCD 07/03 Q0997 WSW (250°) 20.7mph 7°C 3°C
6/06/20 05:50 EGGW 060450Z AUTO 25015KT 9999 NCD 06/03 Q0997 WSW (250°) 17.3mph 6°C 3°C
6/06/20 05:20 EGGW 060420Z AUTO 25015KT 9999 NCD 06/02 Q0997 WSW (250°) 17.3mph 6°C 2°C
6/06/20 04:50 EGGW 060350Z AUTO 26016KT 9999 NCD 06/02 Q0997 W (260°) 18.4mph 6°C 2°C
6/06/20 04:20 EGGW 060320Z AUTO 25013KT 9999 NCD 06/03 Q0997 WSW (250°) 15.0mph 6°C 3°C
6/06/20 03:50 EGGW 060250Z AUTO 25014KT 9999 NCD 06/03 Q0997 WSW (250°) 16.1mph 6°C 3°C
6/06/20 03:20 EGGW 060220Z AUTO 26013KT 9999 NCD 06/03 Q0997 W (260°) 15.0mph 6°C 3°C
6/06/20 02:50 EGGW 060150Z AUTO 26015KT 9999 NCD 06/03 Q0998 W (260°) 17.3mph 6°C 3°C
6/06/20 02:20 EGGW 060120Z AUTO 26013KT 9999 NCD 07/03 Q0998 W (260°) 15.0mph 7°C 3°C
6/06/20 01:50 EGGW 060050Z AUTO 26012KT 9999 NCD 07/03 Q0998 W (260°) 13.8mph 7°C 3°C
6/06/20 01:20 EGGW 060020Z AUTO 26009KT 9999 NCD 07/02 Q0998 W (260°) 10.4mph 7°C 2°C
6/06/20 00:50 EGGW 052350Z AUTO 27011KT 9999 NCD 07/02 Q0998 W (270°) 12.7mph 7°C 2°C
6/06/20 00:20 EGGW 052320Z AUTO 27011KT 9999 NCD 08/02 Q0998 W (270°) 12.7mph 8°C 2°C
5/06/20 23:50 EGGW 052250Z AUTO 27012KT 9999 SCT043 09/03 Q0998 W (270°) 13.8mph 9°C 3°C
5/06/20 23:20 EGGW 052220Z AUTO 28009KT 9999 BKN043 10/02 Q0997 W (280°) 10.4mph 10°C 2°C
5/06/20 22:50 EGGW 052150Z AUTO 28010KT 9999 NCD 10/02 Q0997 W (280°) 11.5mph 10°C 2°C
5/06/20 21:50 EGGW 052050Z AUTO 27009KT 9999 NCD 09/03 Q0997 W (270°) 10.4mph 9°C 3°C
5/06/20 21:20 EGGW 052020Z AUTO 30013KT 9999 NCD 10/03 Q0997 WNW (300°) 15.0mph 10°C 3°C
5/06/20 20:50 EGGW 051950Z AUTO 27014KT 9999 NCD 11/01 Q0997 W (270°) 16.1mph 11°C 1°C
5/06/20 20:20 EGGW 051920Z AUTO 28016KT 9999 NCD 12/01 Q0997 W (280°) 18.4mph 12°C 1°C
5/06/20 19:50 EGGW 051850Z AUTO 28016KT 9999 NCD 13/01 Q0997 W (280°) 18.4mph 13°C 1°C
5/06/20 19:20 EGGW 051820Z AUTO 28016KT 9999 NCD 14/01 Q0996 W (280°) 18.4mph 14°C 1°C
5/06/20 18:50 EGGW 051750Z AUTO 29019KT 9999 NCD 14/M01 Q0996 WNW (290°) 21.9mph 14°C -1°C
5/06/20 18:20 EGGW 051720Z AUTO 28018KT 9999 NCD 14/M01 Q0996 W (280°) 20.7mph 14°C -1°C
5/06/20 17:50 EGGW 051650Z AUTO 29020KT 9999 NCD 14/M02 Q0996 WNW (290°) 23.0mph 14°C -2°C
5/06/20 17:20 EGGW 051620Z AUTO 30019KT 9999 NCD 15/00 Q0996 WNW (300°) 21.9mph 15°C 0°C
5/06/20 16:50 EGGW 051550Z AUTO 31019KT 9999 NCD 15/01 Q0996 NW (310°) 21.9mph 15°C 1°C
5/06/20 16:20 EGGW 051520Z AUTO 30021KT 9999 NCD 14/02 Q0996 WNW (300°) 24.2mph 14°C 2°C
5/06/20 15:50 EGGW 051450Z AUTO 30017KT 9999 FEW034/// //////CB 13/02 Q0996 WNW (300°) 19.6mph 13°C 2°C
5/06/20 15:20 EGGW 051420Z AUTO 31018KT 9999 -RA FEW040/// SCT046/// //////CB 11/03 Q0997 -RA NW (310°) 20.7mph 11°C 3°C
5/06/20 14:50 EGGW 051350Z AUTO 27016KT 9999 SCT040/// SCT048/// //////TCU 14/05 Q0996 W (270°) 18.4mph 14°C 5°C
5/06/20 14:20 EGGW 051320Z AUTO 31022G32KT 9999 BKN043/// //////CB 12/03 Q0996 NW (310°) 25.3mph 36.8mph 12°C 3°C
5/06/20 13:50 EGGW 051250Z AUTO 30016KT 9999 FEW038 BKN045 13/05 Q0996 WNW (300°) 18.4mph 13°C 5°C
5/06/20 13:20 EGGW 051220Z AUTO 32014KT 9999 //////CB 12/07 Q0996 NW (320°) 16.1mph 12°C 7°C
5/06/20 12:50 EGGW 051150Z AUTO 31012KT 9999 FEW029/// SCT037/// BKN043/// //////CB 10/07 Q0996 NW (310°) 13.8mph 10°C 7°C
5/06/20 12:20 EGGW 051120Z AUTO 31012KT 9999 -RA FEW016/// BKN032/// BKN047/// //////TCU 09/07 Q0996 -RA NW (310°) 13.8mph 9°C 7°C
5/06/20 11:20 EGGW 051020Z AUTO 30011KT 9999 -RA BKN017/// BKN025/// OVC046/// //////CB 08/06 Q0996 RERA -RA WNW (300°) 12.7mph 8°C 6°C
5/06/20 10:50 EGGW 050950Z AUTO 31015KT 9999 -RA BKN023 BKN029 11/06 Q0995 -RA NW (310°) 17.3mph 11°C 6°C
5/06/20 10:20 EGGW 050920Z AUTO 31018KT 9999 BKN022 BKN026 BKN044 12/06 Q0995 NW (310°) 20.7mph 12°C 6°C
5/06/20 09:50 EGGW 050850Z AUTO 31019KT 9999 BKN022 BKN028 11/06 Q0995 NW (310°) 21.9mph 11°C 6°C
5/06/20 09:20 EGGW 050820Z AUTO 30018KT 9999 BKN022 BKN034 12/06 Q0994 WNW (300°) 20.7mph 12°C 6°C
5/06/20 08:50 EGGW 050750Z AUTO 30021KT 9999 BKN025 11/06 Q0994 WNW (300°) 24.2mph 11°C 6°C
5/06/20 08:20 EGGW 050720Z AUTO 29018KT 9999 BKN024 10/05 Q0994 WNW (290°) 20.7mph 10°C 5°C
5/06/20 07:50 EGGW 050650Z AUTO 28018KT 9999 OVC023 10/05 Q0995 W (280°) 20.7mph 10°C 5°C
5/06/20 06:50 EGGW 050550Z AUTO 30010KT 9999 SCT029 BKN047 09/06 Q0995 WNW (300°) 11.5mph 9°C 6°C
5/06/20 06:20 EGGW 050520Z AUTO 29013KT 9999 NCD 09/06 Q0995 WNW (290°) 15.0mph 9°C 6°C
5/06/20 05:50 EGGW 050450Z AUTO 29011KT 9999 NCD 09/07 Q0995 WNW (290°) 12.7mph 9°C 7°C
5/06/20 05:20 EGGW 050420Z AUTO 29011KT 9999 BKN047 09/07 Q0995 WNW (290°) 12.7mph 9°C 7°C
5/06/20 04:50 EGGW 050350Z AUTO 29010KT 260V320 9999 SCT015 BKN045 09/08 Q0995 WNW (290°) 11.5mph 9°C 8°C
5/06/20 03:50 EGGW 050250Z AUTO 27009KT 9999 OVC036/// //////TCU 09/08 Q0996 W (270°) 10.4mph 9°C 8°C
5/06/20 03:20 EGGW 050220Z AUTO 29011KT 9999 -RA FEW011/// BKN027/// OVC031/// //////CB 09/07 Q0996 -RA WNW (290°) 12.7mph 9°C 7°C
5/06/20 02:50 EGGW 050150Z AUTO 26011KT 7000 -RA BKN011/// BKN021/// //////TCU 10/08 Q0996 -RA W (260°) 12.7mph 10°C 8°C
5/06/20 02:20 EGGW 050120Z AUTO 25011KT 9999 FEW020/// BKN030/// OVC041/// //////CB 10/08 Q0997 WSW (250°) 12.7mph 10°C 8°C
5/06/20 01:50 EGGW 050050Z AUTO 25009KT 9999 FEW028 BKN045 10/08 Q0997 WSW (250°) 10.4mph 10°C 8°C
5/06/20 01:20 EGGW 050020Z AUTO 26011KT 9999 SCT044 10/08 Q0997 W (260°) 12.7mph 10°C 8°C
5/06/20 00:50 EGGW 042350Z AUTO 25010KT 9999 SCT043 10/08 Q0998 WSW (250°) 11.5mph 10°C 8°C
5/06/20 00:20 EGGW 042320Z AUTO 25010KT 9999 SCT045 10/08 Q0999 WSW (250°) 11.5mph 10°C 8°C
4/06/20 23:50 EGGW 042250Z AUTO 26010KT 9999 FEW025 10/08 Q0999 W (260°) 11.5mph 10°C 8°C
4/06/20 23:20 EGGW 042220Z AUTO 26011KT 9999 NCD 10/08 Q0999 W (260°) 12.7mph 10°C 8°C
4/06/20 22:50 EGGW 042150Z AUTO 26011KT 9999 FEW040 10/08 Q1000 W (260°) 12.7mph 10°C 8°C
4/06/20 22:20 EGGW 042120Z AUTO 25010KT 9999 BKN038 10/08 Q1000 WSW (250°) 11.5mph 10°C 8°C
4/06/20 21:50 EGGW 042050Z AUTO 25009KT 9999 FEW043 11/08 Q1000 WSW (250°) 10.4mph 11°C 8°C
4/06/20 21:20 EGGW 042020Z AUTO 25009KT 9999 BKN042 11/07 Q1000 WSW (250°) 10.4mph 11°C 7°C
4/06/20 20:20 EGGW 041920Z AUTO 25008KT 9999 NCD 11/06 Q1000 WSW (250°) 9.2mph 11°C 6°C
4/06/20 19:50 EGGW 041850Z AUTO 28010KT 9999 SCT038 12/05 Q1000 W (280°) 11.5mph 12°C 5°C
4/06/20 18:50 EGGW 041750Z AUTO 29008KT 9999 BKN044 11/07 Q1001 WNW (290°) 9.2mph 11°C 7°C
4/06/20 18:20 EGGW 041720Z AUTO 29011KT 9999 FEW025 11/07 Q1001 WNW (290°) 12.7mph 11°C 7°C
4/06/20 17:50 EGGW 041650Z AUTO 27011KT 9999 -RA SCT025 BKN033 BKN044 11/07 Q1001 -RA W (270°) 12.7mph 11°C 7°C
4/06/20 17:20 EGGW 041620Z AUTO 24006KT 9999 SCT024 BKN030 12/07 Q1001 WSW (240°) 6.9mph 12°C 7°C
4/06/20 16:20 EGGW 041520Z AUTO 30006KT 9999 FEW025 SCT040 11/08 Q1002 WNW (300°) 6.9mph 11°C 8°C
4/06/20 15:50 EGGW 041450Z AUTO 30014KT 9999 BKN025 OVC035 12/06 Q1002 WNW (300°) 16.1mph 12°C 6°C
4/06/20 14:50 EGGW 041350Z AUTO 29009KT 260V320 9999 OVC035 13/05 Q1002 WNW (290°) 10.4mph 13°C 5°C
4/06/20 14:20 EGGW 041320Z AUTO 31012KT 9999 BKN036 OVC049 13/04 Q1003 NW (310°) 13.8mph 13°C 4°C
4/06/20 13:50 EGGW 041250Z AUTO 31013KT 9999 SCT037 BKN045 13/04 Q1003 NW (310°) 15.0mph 13°C 4°C
4/06/20 13:20 EGGW 041220Z AUTO 31012KT 290V350 9999 BKN038 14/04 Q1003 NW (310°) 13.8mph 14°C 4°C
4/06/20 12:50 EGGW 041150Z AUTO 33012KT 290V010 9999 SCT037 14/04 Q1003 NNW (330°) 13.8mph 14°C 4°C
4/06/20 12:20 EGGW 041120Z AUTO 33014KT 290V350 9999 NCD 14/04 Q1003 NNW (330°) 16.1mph 14°C 4°C
4/06/20 11:50 EGGW 041050Z AUTO 32012KT 9999 NCD 12/05 Q1004 NW (320°) 13.8mph 12°C 5°C
4/06/20 11:20 EGGW 041020Z AUTO 33011KT 9999 NCD 12/05 Q1003 NNW (330°) 12.7mph 12°C 5°C
4/06/20 10:50 EGGW 040950Z AUTO 33011KT 9999 NCD 12/05 Q1004 NNW (330°) 12.7mph 12°C 5°C
4/06/20 10:20 EGGW 040920Z AUTO 33012KT 9999 FEW024 11/05 Q1004 NNW (330°) 13.8mph 11°C 5°C
4/06/20 09:50 EGGW 040850Z AUTO 34011KT 9999 FEW022 11/06 Q1004 NNW (340°) 12.7mph 11°C 6°C
4/06/20 09:20 EGGW 040820Z AUTO 35012KT 9999 FEW025 11/06 Q1004 N (350°) 13.8mph 11°C 6°C
4/06/20 08:50 EGGW 040750Z AUTO 35012KT 9999 BKN014 11/07 Q1004 N (350°) 13.8mph 11°C 7°C
4/06/20 08:20 EGGW 040720Z AUTO 35014KT 9999 BKN012 BKN017 10/08 Q1004 N (350°) 16.1mph 10°C 8°C
4/06/20 07:50 EGGW 040650Z AUTO 35011KT 9999 BKN011 OVC019 10/08 Q1005 N (350°) 12.7mph 10°C 8°C
4/06/20 07:20 EGGW 040620Z AUTO 35012KT 9999 OVC009 10/08 Q1005 N (350°) 13.8mph 10°C 8°C